IBE0585 LEMD-LFPG
Flight info
| Callsign | IBE0585 |
|---|---|
| Flight time | 1h 27m |
| Altitude | 34000 |
| Route | RBO N867 DGO L176 LUSEM DCT LULUT DCT POI DCT PEPAX UT182 KEPER |
| Aircraft | A320/M-SDE3FGHIRWY/LB1 |
Departure
| Time | 2026-05-09 06:36 |
|---|---|
| Airport | Adolfo Suárez Madrid–Barajas Airport (LEMD) |
Arrival
| Time | 2026-05-09 08:03 |
|---|---|
| Airport | Charles de Gaulle International Airport (LFPG) |
| Time | Latitude | Longitude | Altitude | Speed | Heading |
|---|---|---|---|---|---|
| 2026-05-09 06:20 | 40.49004 | -3.58962 | 2032 ft | 0 kts | 271° |
| 2026-05-09 06:24 | 40.49004 | -3.58938 | 2025 ft | 3 kts | 271° |
| 2026-05-09 06:24 | 40.49003 | -3.58913 | 2025 ft | 3 kts | 265° |
| 2026-05-09 06:24 | 40.49012 | -3.58894 | 2034 ft | 3 kts | 189° |
| 2026-05-09 06:24 | 40.49015 | -3.58893 | 2034 ft | 0 kts | 184° |
| 2026-05-09 06:26 | 40.49013 | -3.58893 | 2034 ft | 3 kts | 181° |
| 2026-05-09 06:27 | 40.48948 | -3.58887 | 2025 ft | 15 kts | 175° |
| 2026-05-09 06:27 | 40.48843 | -3.58878 | 2028 ft | 15 kts | 178° |
| 2026-05-09 06:27 | 40.48764 | -3.58834 | 2030 ft | 11 kts | 109° |
| 2026-05-09 06:27 | 40.48759 | -3.58735 | 2025 ft | 11 kts | 90° |
| 2026-05-09 06:28 | 40.48759 | -3.58621 | 2025 ft | 13 kts | 90° |
| 2026-05-09 06:28 | 40.48760 | -3.58486 | 2021 ft | 17 kts | 90° |
| 2026-05-09 06:28 | 40.48761 | -3.58318 | 2015 ft | 20 kts | 89° |
| 2026-05-09 06:28 | 40.48762 | -3.58123 | 2009 ft | 21 kts | 83° |
| 2026-05-09 06:29 | 40.48852 | -3.58002 | 2004 ft | 18 kts | 70° |
| 2026-05-09 06:29 | 40.48857 | -3.57823 | 1998 ft | 21 kts | 90° |
| 2026-05-09 06:29 | 40.48858 | -3.57619 | 1993 ft | 23 kts | 89° |
| 2026-05-09 06:29 | 40.48859 | -3.57403 | 1989 ft | 24 kts | 90° |
| 2026-05-09 06:30 | 40.48857 | -3.57172 | 1986 ft | 26 kts | 88° |
| 2026-05-09 06:30 | 40.48861 | -3.56932 | 1981 ft | 27 kts | 90° |
| 2026-05-09 06:30 | 40.48862 | -3.56675 | 1977 ft | 29 kts | 89° |
| 2026-05-09 06:30 | 40.48862 | -3.56404 | 1969 ft | 25 kts | 90° |
| 2026-05-09 06:31 | 40.48926 | -3.56247 | 1969 ft | 21 kts | 6° |
| 2026-05-09 06:31 | 40.49067 | -3.56245 | 1965 ft | 20 kts | 359° |
| 2026-05-09 06:31 | 40.49119 | -3.56246 | 1965 ft | 4 kts | 359° |
| 2026-05-09 06:31 | 40.49173 | -3.56247 | 1965 ft | 11 kts | 0° |
| 2026-05-09 06:32 | 40.49266 | -3.56246 | 1964 ft | 16 kts | 359° |
| 2026-05-09 06:32 | 40.49395 | -3.56247 | 1965 ft | 21 kts | 360° |
| 2026-05-09 06:32 | 40.49554 | -3.56247 | 1964 ft | 25 kts | 360° |
| 2026-05-09 06:33 | 40.49886 | -3.56251 | 1964 ft | 19 kts | 360° |
| 2026-05-09 06:33 | 40.50005 | -3.56246 | 1969 ft | 16 kts | 30° |
| 2026-05-09 06:33 | 40.50029 | -3.56116 | 1961 ft | 16 kts | 89° |
| 2026-05-09 06:34 | 40.50033 | -3.56052 | 1965 ft | 0 kts | 74° |
| 2026-05-09 06:34 | 40.50034 | -3.56048 | 1964 ft | 2 kts | 74° |
| 2026-05-09 06:34 | 40.50047 | -3.56004 | 1963 ft | 9 kts | 65° |
| 2026-05-09 06:34 | 40.50100 | -3.55922 | 1963 ft | 13 kts | 13° |
| 2026-05-09 06:35 | 40.50131 | -3.55920 | 1963 ft | 0 kts | 1° |
| 2026-05-09 06:35 | 40.50164 | -3.55919 | 1964 ft | 26 kts | 360° |
| 2026-05-09 06:35 | 40.50581 | -3.55926 | 1973 ft | 92 kts | 0° |
| 2026-05-09 06:36 | 40.51451 | -3.55929 | 1954 ft | 153 kts | 359° |
| 2026-05-09 06:36 | 40.52582 | -3.55953 | 2356 ft | 160 kts | 359° |
| 2026-05-09 06:36 | 40.53660 | -3.55994 | 3101 ft | 150 kts | 358° |
| 2026-05-09 06:36 | 40.54743 | -3.56063 | 3565 ft | 164 kts | 358° |
| 2026-05-09 06:37 | 40.55931 | -3.56169 | 4023 ft | 179 kts | 357° |
| 2026-05-09 06:37 | 40.57276 | -3.56172 | 4378 ft | 207 kts | 3° |
| 2026-05-09 06:37 | 40.58795 | -3.56024 | 4768 ft | 230 kts | 12° |
| 2026-05-09 06:37 | 40.60409 | -3.55521 | 5447 ft | 245 kts | 17° |
| 2026-05-09 06:38 | 40.62071 | -3.54898 | 6320 ft | 251 kts | 17° |
| 2026-05-09 06:38 | 40.63760 | -3.54205 | 7129 ft | 258 kts | 24° |
| 2026-05-09 06:38 | 40.65297 | -3.52876 | 7616 ft | 275 kts | 52° |
| 2026-05-09 06:38 | 40.66431 | -3.50771 | 8219 ft | 289 kts | 57° |
| 2026-05-09 06:39 | 40.67781 | -3.48741 | 9061 ft | 298 kts | 51° |
| 2026-05-09 06:39 | 40.69221 | -3.46727 | 9949 ft | 305 kts | 50° |
| 2026-05-09 06:39 | 40.70723 | -3.44665 | 10535 ft | 322 kts | 50° |
| 2026-05-09 06:39 | 40.72327 | -3.42473 | 10997 ft | 341 kts | 49° |
| 2026-05-09 06:40 | 40.73998 | -3.40198 | 11756 ft | 349 kts | 49° |
| 2026-05-09 06:40 | 40.75679 | -3.37913 | 12619 ft | 354 kts | 49° |
| 2026-05-09 06:40 | 40.77408 | -3.35560 | 13496 ft | 360 kts | 49° |
| 2026-05-09 06:40 | 40.79163 | -3.33168 | 14295 ft | 365 kts | 49° |
| 2026-05-09 06:41 | 40.80947 | -3.30734 | 15025 ft | 372 kts | 49° |
| 2026-05-09 06:41 | 40.82777 | -3.28265 | 15735 ft | 380 kts | 46° |
| 2026-05-09 06:41 | 40.84848 | -3.26043 | 16473 ft | 389 kts | 34° |
| 2026-05-09 06:41 | 40.87290 | -3.24459 | 17215 ft | 395 kts | 18° |
| 2026-05-09 06:42 | 40.89954 | -3.23482 | 17950 ft | 400 kts | 11° |
| 2026-05-09 06:42 | 40.92695 | -3.22759 | 18630 ft | 404 kts | 7° |
| 2026-05-09 06:42 | 40.95494 | -3.22161 | 19244 ft | 409 kts | 6° |
| 2026-05-09 06:42 | 40.98332 | -3.21603 | 19841 ft | 415 kts | 6° |
| 2026-05-09 06:43 | 41.01216 | -3.21034 | 20437 ft | 422 kts | 6° |
| 2026-05-09 06:43 | 41.04134 | -3.20436 | 21049 ft | 428 kts | 6° |
| 2026-05-09 06:43 | 41.07090 | -3.19806 | 21649 ft | 433 kts | 7° |
| 2026-05-09 06:43 | 41.10080 | -3.19150 | 22261 ft | 438 kts | 7° |
| 2026-05-09 06:44 | 41.13093 | -3.18475 | 22939 ft | 440 kts | 7° |
| 2026-05-09 06:44 | 41.16135 | -3.17788 | 23485 ft | 446 kts | 7° |
| 2026-05-09 06:44 | 41.19213 | -3.17091 | 23970 ft | 451 kts | 7° |
| 2026-05-09 06:44 | 41.22287 | -3.16394 | 24412 ft | 455 kts | 8° |
| 2026-05-09 06:45 | 41.25428 | -3.15682 | 24865 ft | 460 kts | 8° |
| 2026-05-09 06:45 | 41.28598 | -3.14964 | 25322 ft | 464 kts | 8° |
| 2026-05-09 06:45 | 41.31795 | -3.14239 | 25767 ft | 468 kts | 9° |
| 2026-05-09 06:45 | 41.35018 | -3.13509 | 26201 ft | 472 kts | 9° |
| 2026-05-09 06:46 | 41.38268 | -3.12772 | 26618 ft | 476 kts | 9° |
| 2026-05-09 06:46 | 41.41549 | -3.12027 | 27019 ft | 480 kts | 9° |
| 2026-05-09 06:46 | 41.44857 | -3.11274 | 27414 ft | 484 kts | 10° |
| 2026-05-09 06:46 | 41.48185 | -3.10517 | 27806 ft | 488 kts | 10° |
| 2026-05-09 06:47 | 41.51545 | -3.09753 | 28188 ft | 491 kts | 10° |
| 2026-05-09 06:47 | 41.54937 | -3.08982 | 28515 ft | 498 kts | 10° |
| 2026-05-09 06:47 | 41.58373 | -3.08203 | 28803 ft | 503 kts | 10° |
| 2026-05-09 06:47 | 41.61829 | -3.07419 | 29200 ft | 506 kts | 10° |
| 2026-05-09 06:48 | 41.65279 | -3.06635 | 29565 ft | 509 kts | 10° |
| 2026-05-09 06:48 | 41.68836 | -3.05826 | 29923 ft | 513 kts | 11° |
| 2026-05-09 06:48 | 41.72317 | -3.05034 | 30198 ft | 516 kts | 10° |
| 2026-05-09 06:48 | 41.75865 | -3.04223 | 30575 ft | 517 kts | 10° |
| 2026-05-09 06:49 | 41.79417 | -3.03407 | 30890 ft | 520 kts | 9° |
| 2026-05-09 06:49 | 41.82990 | -3.02584 | 31185 ft | 523 kts | 9° |
| 2026-05-09 06:49 | 41.86585 | -3.01755 | 31544 ft | 523 kts | 9° |
| 2026-05-09 06:49 | 41.90168 | -3.00928 | 31971 ft | 523 kts | 9° |
| 2026-05-09 06:50 | 41.93753 | -3.00099 | 32370 ft | 522 kts | 9° |
| 2026-05-09 06:50 | 41.97334 | -2.99270 | 32746 ft | 521 kts | 9° |
| 2026-05-09 06:50 | 42.00906 | -2.98443 | 33158 ft | 521 kts | 9° |
| 2026-05-09 06:50 | 42.03271 | -2.97894 | 33425 ft | 520 kts | 8° |
| 2026-05-09 06:51 | 42.06840 | -2.97065 | 33773 ft | 521 kts | 8° |
| 2026-05-09 06:51 | 42.10419 | -2.96234 | 33907 ft | 523 kts | 8° |
| 2026-05-09 06:51 | 42.17584 | -2.94567 | 33915 ft | 521 kts | 8° |
| 2026-05-09 06:52 | 42.24708 | -2.92905 | 33903 ft | 520 kts | 8° |
| 2026-05-09 06:52 | 42.31796 | -2.91248 | 33911 ft | 520 kts | 9° |
| 2026-05-09 06:53 | 42.38935 | -2.89575 | 33920 ft | 520 kts | 8° |
| 2026-05-09 06:53 | 42.45953 | -2.87225 | 33913 ft | 521 kts | 25° |
| 2026-05-09 06:54 | 42.52428 | -2.82845 | 33914 ft | 520 kts | 30° |
| 2026-05-09 06:54 | 42.58723 | -2.78102 | 33926 ft | 520 kts | 32° |
| 2026-05-09 06:55 | 42.65022 | -2.73256 | 33922 ft | 520 kts | 31° |
| 2026-05-09 06:55 | 42.71342 | -2.68418 | 33932 ft | 521 kts | 31° |
| 2026-05-09 06:56 | 42.77672 | -2.63595 | 33933 ft | 520 kts | 31° |
| 2026-05-09 06:56 | 42.83974 | -2.58793 | 33936 ft | 519 kts | 31° |
| 2026-05-09 06:57 | 42.90233 | -2.54011 | 33916 ft | 518 kts | 31° |
| 2026-05-09 06:57 | 42.96528 | -2.49189 | 33918 ft | 518 kts | 31° |
| 2026-05-09 06:58 | 43.02813 | -2.44362 | 33913 ft | 519 kts | 31° |
| 2026-05-09 06:58 | 43.09116 | -2.39510 | 33905 ft | 520 kts | 31° |
| 2026-05-09 06:59 | 43.15425 | -2.34642 | 33906 ft | 520 kts | 31° |
| 2026-05-09 06:59 | 43.21734 | -2.29763 | 33905 ft | 520 kts | 31° |
| 2026-05-09 07:00 | 43.28034 | -2.24878 | 33904 ft | 520 kts | 31° |
| 2026-05-09 07:00 | 43.34304 | -2.20005 | 33898 ft | 521 kts | 31° |
| 2026-05-09 07:01 | 43.40609 | -2.15094 | 33891 ft | 521 kts | 31° |
| 2026-05-09 07:01 | 43.46917 | -2.10168 | 33892 ft | 522 kts | 31° |
| 2026-05-09 07:02 | 43.53233 | -2.05224 | 33889 ft | 522 kts | 31° |
| 2026-05-09 07:02 | 43.59561 | -2.00259 | 33889 ft | 522 kts | 31° |
| 2026-05-09 07:03 | 43.65879 | -1.95288 | 33896 ft | 523 kts | 30° |
| 2026-05-09 07:03 | 43.72176 | -1.90321 | 33864 ft | 525 kts | 30° |
| 2026-05-09 07:04 | 43.78499 | -1.85319 | 33898 ft | 522 kts | 30° |
| 2026-05-09 07:04 | 43.84798 | -1.80325 | 33897 ft | 521 kts | 29° |
| 2026-05-09 07:05 | 43.91079 | -1.75333 | 33899 ft | 521 kts | 29° |
| 2026-05-09 07:05 | 43.97367 | -1.70323 | 33903 ft | 521 kts | 29° |
| 2026-05-09 07:06 | 44.03655 | -1.65301 | 33910 ft | 521 kts | 29° |
| 2026-05-09 07:06 | 44.09937 | -1.60271 | 33912 ft | 520 kts | 29° |
| 2026-05-09 07:07 | 44.16203 | -1.55241 | 33904 ft | 520 kts | 29° |
| 2026-05-09 07:07 | 44.22442 | -1.50221 | 33916 ft | 519 kts | 28° |
| 2026-05-09 07:08 | 44.28700 | -1.45173 | 33915 ft | 518 kts | 28° |
| 2026-05-09 07:08 | 44.34932 | -1.40134 | 33930 ft | 518 kts | 28° |
| 2026-05-09 07:09 | 44.41165 | -1.35081 | 33935 ft | 518 kts | 28° |
| 2026-05-09 07:09 | 44.47389 | -1.30023 | 33932 ft | 517 kts | 28° |
| 2026-05-09 07:10 | 44.53612 | -1.24953 | 33935 ft | 517 kts | 28° |
| 2026-05-09 07:10 | 44.59790 | -1.19907 | 33944 ft | 517 kts | 28° |
| 2026-05-09 07:11 | 44.65991 | -1.14830 | 33938 ft | 515 kts | 28° |
| 2026-05-09 07:11 | 44.72181 | -1.09749 | 33936 ft | 515 kts | 28° |
| 2026-05-09 07:12 | 44.78368 | -1.04658 | 33939 ft | 515 kts | 28° |
| 2026-05-09 07:12 | 44.84554 | -0.99554 | 33930 ft | 515 kts | 28° |
| 2026-05-09 07:13 | 44.90749 | -0.94431 | 33939 ft | 515 kts | 28° |
| 2026-05-09 07:13 | 44.96936 | -0.89302 | 33931 ft | 515 kts | 28° |
| 2026-05-09 07:14 | 45.03108 | -0.84171 | 33935 ft | 514 kts | 28° |
| 2026-05-09 07:14 | 45.09223 | -0.79075 | 33949 ft | 512 kts | 28° |
| 2026-05-09 07:15 | 45.15371 | -0.73938 | 33945 ft | 512 kts | 28° |
| 2026-05-09 07:15 | 45.21517 | -0.68791 | 33951 ft | 511 kts | 28° |
| 2026-05-09 07:16 | 45.27624 | -0.63662 | 33950 ft | 509 kts | 28° |
| 2026-05-09 07:16 | 45.33680 | -0.58565 | 33948 ft | 508 kts | 28° |
| 2026-05-09 07:17 | 45.39757 | -0.53437 | 33960 ft | 508 kts | 28° |
| 2026-05-09 07:17 | 45.45824 | -0.48304 | 33960 ft | 506 kts | 28° |
| 2026-05-09 07:18 | 45.51884 | -0.43165 | 33964 ft | 506 kts | 28° |
| 2026-05-09 07:18 | 45.57934 | -0.38020 | 33977 ft | 506 kts | 28° |
| 2026-05-09 07:19 | 45.63959 | -0.32884 | 33965 ft | 502 kts | 29° |
| 2026-05-09 07:19 | 45.70179 | -0.28461 | 33966 ft | 498 kts | 22° |
| 2026-05-09 07:20 | 45.76429 | -0.24317 | 33966 ft | 498 kts | 21° |
| 2026-05-09 07:20 | 45.82739 | -0.20209 | 33964 ft | 495 kts | 22° |
| 2026-05-09 07:21 | 45.89005 | -0.16124 | 33962 ft | 494 kts | 22° |
| 2026-05-09 07:21 | 45.95264 | -0.12023 | 33964 ft | 494 kts | 22° |
| 2026-05-09 07:22 | 46.01509 | -0.07913 | 33962 ft | 491 kts | 22° |
| 2026-05-09 07:22 | 46.07712 | -0.03818 | 33960 ft | 489 kts | 22° |
| 2026-05-09 07:23 | 46.13898 | 0.00274 | 33950 ft | 489 kts | 22° |
| 2026-05-09 07:23 | 46.20085 | 0.04375 | 33969 ft | 487 kts | 22° |
| 2026-05-09 07:24 | 46.26184 | 0.08430 | 33971 ft | 485 kts | 22° |
| 2026-05-09 07:24 | 46.32314 | 0.12515 | 33974 ft | 485 kts | 22° |
| 2026-05-09 07:25 | 46.38437 | 0.16605 | 33977 ft | 484 kts | 23° |
| 2026-05-09 07:25 | 46.44546 | 0.20696 | 33990 ft | 482 kts | 23° |
| 2026-05-09 07:26 | 46.50642 | 0.24788 | 33990 ft | 482 kts | 23° |
| 2026-05-09 07:26 | 46.56750 | 0.28814 | 33994 ft | 481 kts | 18° |
| 2026-05-09 07:27 | 46.63166 | 0.31369 | 33989 ft | 476 kts | 11° |
| 2026-05-09 07:27 | 46.69613 | 0.33417 | 33989 ft | 476 kts | 9° |
| 2026-05-09 07:28 | 46.76105 | 0.35372 | 33989 ft | 476 kts | 9° |
| 2026-05-09 07:28 | 46.82594 | 0.37338 | 33987 ft | 476 kts | 9° |
| 2026-05-09 07:29 | 46.89038 | 0.39318 | 33986 ft | 476 kts | 9° |
| 2026-05-09 07:29 | 46.95526 | 0.41325 | 33970 ft | 476 kts | 9° |
| 2026-05-09 07:30 | 47.01979 | 0.43330 | 33988 ft | 472 kts | 9° |
| 2026-05-09 07:30 | 47.08423 | 0.44658 | 33981 ft | 465 kts | 356° |
| 2026-05-09 07:31 | 47.14841 | 0.43694 | 33989 ft | 462 kts | 348° |
| 2026-05-09 07:31 | 47.21153 | 0.42199 | 33989 ft | 461 kts | 347° |
| 2026-05-09 07:32 | 47.27476 | 0.40593 | 33741 ft | 459 kts | 347° |
| 2026-05-09 07:32 | 47.30636 | 0.39795 | 32992 ft | 461 kts | 347° |
| 2026-05-09 07:32 | 47.33788 | 0.39009 | 32401 ft | 460 kts | 347° |
| 2026-05-09 07:33 | 47.36938 | 0.38231 | 31833 ft | 458 kts | 347° |
| 2026-05-09 07:33 | 47.43199 | 0.36692 | 30698 ft | 455 kts | 348° |
| 2026-05-09 07:33 | 47.46273 | 0.35938 | 30211 ft | 451 kts | 348° |
| 2026-05-09 07:34 | 47.49362 | 0.35177 | 29639 ft | 448 kts | 348° |
| 2026-05-09 07:34 | 47.52423 | 0.34420 | 29098 ft | 444 kts | 348° |
| 2026-05-09 07:34 | 47.55461 | 0.33666 | 28645 ft | 439 kts | 348° |
| 2026-05-09 07:34 | 47.58459 | 0.32922 | 28100 ft | 436 kts | 348° |
| 2026-05-09 07:35 | 47.61441 | 0.32181 | 27567 ft | 433 kts | 348° |
| 2026-05-09 07:35 | 47.64407 | 0.31442 | 27053 ft | 430 kts | 348° |
| 2026-05-09 07:35 | 47.66358 | 0.30956 | 26730 ft | 428 kts | 348° |
| 2026-05-09 07:35 | 47.70234 | 0.29990 | 26087 ft | 423 kts | 348° |
| 2026-05-09 07:36 | 47.73131 | 0.29266 | 25597 ft | 421 kts | 348° |
| 2026-05-09 07:36 | 47.76007 | 0.28548 | 25135 ft | 418 kts | 348° |
| 2026-05-09 07:36 | 47.78893 | 0.28160 | 24659 ft | 417 kts | 1° |
| 2026-05-09 07:36 | 47.80795 | 0.28563 | 24366 ft | 417 kts | 15° |
| 2026-05-09 07:37 | 47.83422 | 0.30297 | 23957 ft | 413 kts | 31° |
| 2026-05-09 07:37 | 47.85810 | 0.32661 | 23480 ft | 411 kts | 35° |
| 2026-05-09 07:37 | 47.88128 | 0.35119 | 22978 ft | 407 kts | 36° |
| 2026-05-09 07:37 | 47.90422 | 0.37561 | 22465 ft | 404 kts | 36° |
| 2026-05-09 07:38 | 47.92698 | 0.39974 | 22054 ft | 398 kts | 36° |
| 2026-05-09 07:38 | 47.94934 | 0.42335 | 21763 ft | 390 kts | 36° |
| 2026-05-09 07:38 | 47.97124 | 0.44642 | 21486 ft | 382 kts | 35° |
| 2026-05-09 07:38 | 47.99276 | 0.46906 | 21204 ft | 374 kts | 35° |
| 2026-05-09 07:39 | 48.01385 | 0.49126 | 20933 ft | 369 kts | 35° |
| 2026-05-09 07:39 | 48.03481 | 0.51333 | 20653 ft | 367 kts | 35° |
| 2026-05-09 07:39 | 48.05565 | 0.53528 | 20380 ft | 365 kts | 35° |
| 2026-05-09 07:39 | 48.07636 | 0.55712 | 20107 ft | 364 kts | 36° |
| 2026-05-09 07:40 | 48.09702 | 0.57893 | 19836 ft | 362 kts | 36° |
| 2026-05-09 07:40 | 48.11756 | 0.60062 | 19560 ft | 360 kts | 36° |
| 2026-05-09 07:40 | 48.13800 | 0.62223 | 19294 ft | 358 kts | 36° |
| 2026-05-09 07:40 | 48.15831 | 0.64373 | 19037 ft | 357 kts | 36° |
| 2026-05-09 07:41 | 48.17829 | 0.66489 | 18772 ft | 355 kts | 36° |
| 2026-05-09 07:41 | 48.19833 | 0.68614 | 18502 ft | 353 kts | 36° |
| 2026-05-09 07:41 | 48.21832 | 0.70736 | 18226 ft | 351 kts | 36° |
| 2026-05-09 07:41 | 48.23825 | 0.72853 | 17949 ft | 350 kts | 36° |
| 2026-05-09 07:42 | 48.25807 | 0.74961 | 17681 ft | 348 kts | 36° |
| 2026-05-09 07:42 | 48.27775 | 0.77056 | 17427 ft | 347 kts | 36° |
| 2026-05-09 07:42 | 48.29740 | 0.79149 | 17167 ft | 345 kts | 36° |
| 2026-05-09 07:42 | 48.31697 | 0.81237 | 16915 ft | 344 kts | 36° |
| 2026-05-09 07:43 | 48.33615 | 0.83362 | 16653 ft | 342 kts | 41° |
| 2026-05-09 07:43 | 48.35167 | 0.86018 | 16401 ft | 337 kts | 58° |
| 2026-05-09 07:43 | 48.36335 | 0.89068 | 16157 ft | 336 kts | 64° |
| 2026-05-09 07:43 | 48.37400 | 0.92143 | 15908 ft | 335 kts | 64° |
| 2026-05-09 07:44 | 48.38463 | 0.95256 | 15651 ft | 333 kts | 64° |
| 2026-05-09 07:44 | 48.39521 | 0.98345 | 15411 ft | 331 kts | 64° |
| 2026-05-09 07:44 | 48.40581 | 1.01427 | 15169 ft | 330 kts | 64° |
| 2026-05-09 07:44 | 48.41635 | 1.04492 | 14967 ft | 329 kts | 64° |
| 2026-05-09 07:45 | 48.42686 | 1.07548 | 14591 ft | 327 kts | 64° |
| 2026-05-09 07:45 | 48.43730 | 1.10583 | 14270 ft | 325 kts | 64° |
| 2026-05-09 07:45 | 48.44767 | 1.13599 | 13955 ft | 323 kts | 64° |
| 2026-05-09 07:45 | 48.45800 | 1.16607 | 13640 ft | 322 kts | 64° |
| 2026-05-09 07:46 | 48.46812 | 1.19557 | 13333 ft | 320 kts | 64° |
| 2026-05-09 07:46 | 48.47830 | 1.22528 | 13034 ft | 318 kts | 64° |
| 2026-05-09 07:46 | 48.48847 | 1.25498 | 12734 ft | 318 kts | 64° |
| 2026-05-09 07:46 | 48.49860 | 1.28460 | 12438 ft | 316 kts | 64° |
| 2026-05-09 07:47 | 48.50851 | 1.31362 | 12245 ft | 307 kts | 64° |
| 2026-05-09 07:47 | 48.51831 | 1.34220 | 11982 ft | 306 kts | 64° |
| 2026-05-09 07:47 | 48.52809 | 1.37070 | 11742 ft | 305 kts | 64° |
| 2026-05-09 07:47 | 48.53782 | 1.39908 | 11566 ft | 305 kts | 64° |
| 2026-05-09 07:48 | 48.54758 | 1.42753 | 11383 ft | 304 kts | 64° |
| 2026-05-09 07:48 | 48.55729 | 1.45583 | 11211 ft | 303 kts | 64° |
| 2026-05-09 07:48 | 48.56718 | 1.48393 | 11029 ft | 303 kts | 59° |
| 2026-05-09 07:48 | 48.58089 | 1.50801 | 10821 ft | 303 kts | 37° |
| 2026-05-09 07:49 | 48.59887 | 1.52441 | 10605 ft | 302 kts | 27° |
| 2026-05-09 07:49 | 48.61773 | 1.53845 | 10381 ft | 302 kts | 25° |
| 2026-05-09 07:49 | 48.63644 | 1.55197 | 10181 ft | 301 kts | 25° |
| 2026-05-09 07:49 | 48.65529 | 1.56564 | 9966 ft | 300 kts | 25° |
| 2026-05-09 07:50 | 48.67410 | 1.57938 | 9735 ft | 299 kts | 25° |
| 2026-05-09 07:50 | 48.69273 | 1.59308 | 9525 ft | 298 kts | 25° |
| 2026-05-09 07:50 | 48.71134 | 1.60682 | 9315 ft | 297 kts | 25° |
| 2026-05-09 07:50 | 48.72989 | 1.62055 | 9113 ft | 296 kts | 26° |
| 2026-05-09 07:51 | 48.74717 | 1.63732 | 8932 ft | 296 kts | 43° |
| 2026-05-09 07:51 | 48.75959 | 1.66183 | 8672 ft | 293 kts | 59° |
| 2026-05-09 07:51 | 48.76954 | 1.68873 | 8446 ft | 292 kts | 63° |
| 2026-05-09 07:51 | 48.77907 | 1.71590 | 8225 ft | 291 kts | 63° |
| 2026-05-09 07:52 | 48.78858 | 1.74305 | 8019 ft | 290 kts | 63° |
| 2026-05-09 07:52 | 48.79798 | 1.76972 | 7788 ft | 289 kts | 63° |
| 2026-05-09 07:52 | 48.80746 | 1.79654 | 7579 ft | 289 kts | 63° |
| 2026-05-09 07:52 | 48.81696 | 1.82330 | 7365 ft | 288 kts | 63° |
| 2026-05-09 07:53 | 48.82643 | 1.84999 | 7146 ft | 286 kts | 63° |
| 2026-05-09 07:53 | 48.83584 | 1.87654 | 6940 ft | 286 kts | 63° |
| 2026-05-09 07:53 | 48.84523 | 1.90303 | 6724 ft | 284 kts | 63° |
| 2026-05-09 07:53 | 48.85457 | 1.92941 | 6506 ft | 283 kts | 63° |
| 2026-05-09 07:54 | 48.86388 | 1.95572 | 6299 ft | 282 kts | 63° |
| 2026-05-09 07:54 | 48.87323 | 1.98185 | 6071 ft | 280 kts | 60° |
| 2026-05-09 07:54 | 48.88489 | 2.00489 | 5921 ft | 270 kts | 47° |
| 2026-05-09 07:54 | 48.89812 | 2.02448 | 5720 ft | 261 kts | 44° |
| 2026-05-09 07:55 | 48.91129 | 2.04293 | 5532 ft | 253 kts | 44° |
| 2026-05-09 07:55 | 48.92404 | 2.06072 | 5336 ft | 245 kts | 44° |
| 2026-05-09 07:55 | 48.93640 | 2.07799 | 5152 ft | 238 kts | 45° |
| 2026-05-09 07:55 | 48.94841 | 2.09485 | 4974 ft | 231 kts | 44° |
| 2026-05-09 07:56 | 48.96010 | 2.11130 | 4758 ft | 227 kts | 45° |
| 2026-05-09 07:56 | 48.97143 | 2.12729 | 4570 ft | 224 kts | 45° |
| 2026-05-09 07:56 | 48.98277 | 2.14328 | 4431 ft | 213 kts | 45° |
| 2026-05-09 07:56 | 48.99326 | 2.15808 | 4242 ft | 204 kts | 45° |
| 2026-05-09 07:57 | 49.00178 | 2.17448 | 4073 ft | 195 kts | 65° |
| 2026-05-09 07:57 | 49.00639 | 2.19350 | 3989 ft | 186 kts | 80° |
| 2026-05-09 07:57 | 49.00816 | 2.21213 | 3975 ft | 169 kts | 87° |
| 2026-05-09 07:57 | 49.00906 | 2.22893 | 3977 ft | 151 kts | 88° |
| 2026-05-09 07:58 | 49.00986 | 2.24461 | 3976 ft | 147 kts | 89° |
| 2026-05-09 07:58 | 49.01071 | 2.25982 | 3862 ft | 139 kts | 88° |
| 2026-05-09 07:58 | 49.01150 | 2.27411 | 3650 ft | 132 kts | 88° |
| 2026-05-09 07:58 | 49.01222 | 2.28787 | 3458 ft | 132 kts | 88° |
| 2026-05-09 07:59 | 49.01295 | 2.30174 | 3269 ft | 131 kts | 87° |
| 2026-05-09 07:59 | 49.01369 | 2.31562 | 3102 ft | 131 kts | 87° |
| 2026-05-09 07:59 | 49.01442 | 2.32945 | 2916 ft | 131 kts | 87° |
| 2026-05-09 07:59 | 49.01515 | 2.34331 | 2749 ft | 131 kts | 86° |
| 2026-05-09 08:00 | 49.01588 | 2.35710 | 2544 ft | 130 kts | 87° |
| 2026-05-09 08:00 | 49.01661 | 2.37087 | 2376 ft | 129 kts | 86° |
| 2026-05-09 08:00 | 49.01733 | 2.38455 | 2213 ft | 129 kts | 86° |
| 2026-05-09 08:00 | 49.01804 | 2.39821 | 2052 ft | 129 kts | 86° |
| 2026-05-09 08:01 | 49.01878 | 2.41181 | 1871 ft | 129 kts | 86° |
| 2026-05-09 08:01 | 49.01949 | 2.42538 | 1697 ft | 128 kts | 86° |
| 2026-05-09 08:01 | 49.02020 | 2.43894 | 1525 ft | 128 kts | 86° |
| 2026-05-09 08:01 | 49.02091 | 2.45230 | 1352 ft | 127 kts | 86° |
| 2026-05-09 08:02 | 49.02163 | 2.46577 | 1174 ft | 128 kts | 86° |
| 2026-05-09 08:02 | 49.02233 | 2.47929 | 1011 ft | 127 kts | 84° |
| 2026-05-09 08:02 | 49.02305 | 2.49270 | 833 ft | 127 kts | 85° |
| 2026-05-09 08:02 | 49.02375 | 2.50604 | 658 ft | 126 kts | 84° |
| 2026-05-09 08:03 | 49.02442 | 2.51938 | 474 ft | 126 kts | 84° |
| 2026-05-09 08:03 | 49.02505 | 2.53252 | 371 ft | 121 kts | 85° |
| 2026-05-09 08:03 | 49.02573 | 2.54347 | 356 ft | 80 kts | 84° |
| 2026-05-09 08:03 | 49.02605 | 2.54918 | 362 ft | 28 kts | 87° |
| 2026-05-09 08:04 | 49.02603 | 2.55080 | 357 ft | 22 kts | 91° |
| 2026-05-09 08:04 | 49.02574 | 2.55294 | 363 ft | 21 kts | 117° |
| 2026-05-09 08:04 | 49.02508 | 2.55493 | 362 ft | 21 kts | 113° |
| 2026-05-09 08:04 | 49.02407 | 2.55614 | 357 ft | 19 kts | 174° |
| 2026-05-09 08:05 | 49.02382 | 2.55618 | 360 ft | 10 kts | 174° |
| 2026-05-09 08:05 | 49.02284 | 2.55631 | 357 ft | 19 kts | 177° |
| 2026-05-09 08:05 | 49.02151 | 2.55642 | 363 ft | 19 kts | 175° |
| 2026-05-09 08:05 | 49.02066 | 2.55530 | 361 ft | 18 kts | 261° |
| 2026-05-09 08:06 | 49.02003 | 2.55455 | 364 ft | 10 kts | 175° |
| 2026-05-09 08:06 | 49.01992 | 2.55456 | 360 ft | 0 kts | 175° |
| 2026-05-09 08:06 | 49.01975 | 2.55458 | 357 ft | 6 kts | 175° |
| 2026-05-09 08:06 | 49.01932 | 2.55464 | 361 ft | 6 kts | 177° |
| 2026-05-09 08:07 | 49.01886 | 2.55426 | 363 ft | 10 kts | 238° |
| 2026-05-09 08:07 | 49.01873 | 2.55311 | 363 ft | 11 kts | 264° |
| 2026-05-09 08:07 | 49.01866 | 2.55193 | 362 ft | 11 kts | 266° |
| 2026-05-09 08:07 | 49.01825 | 2.55130 | 357 ft | 8 kts | 174° |
| 2026-05-09 08:08 | 49.01766 | 2.55138 | 362 ft | 9 kts | 175° |
| 2026-05-09 08:08 | 49.01705 | 2.55145 | 357 ft | 9 kts | 175° |
| 2026-05-09 08:08 | 49.01643 | 2.55153 | 362 ft | 9 kts | 175° |
| 2026-05-09 08:08 | 49.01577 | 2.55161 | 363 ft | 10 kts | 175° |
| 2026-05-09 08:09 | 49.01510 | 2.55170 | 361 ft | 10 kts | 175° |
| 2026-05-09 08:09 | 49.01442 | 2.55182 | 359 ft | 9 kts | 165° |
| 2026-05-09 08:09 | 49.01379 | 2.55207 | 362 ft | 10 kts | 165° |
| 2026-05-09 08:09 | 49.01315 | 2.55217 | 363 ft | 9 kts | 195° |
| 2026-05-09 08:10 | 49.01257 | 2.55189 | 360 ft | 9 kts | 198° |
| 2026-05-09 08:10 | 49.01198 | 2.55160 | 363 ft | 9 kts | 197° |
| 2026-05-09 08:10 | 49.01146 | 2.55166 | 361 ft | 8 kts | 166° |
| 2026-05-09 08:10 | 49.01096 | 2.55189 | 364 ft | 8 kts | 163° |
| 2026-05-09 08:11 | 49.01044 | 2.55213 | 360 ft | 8 kts | 163° |
| 2026-05-09 08:11 | 49.00990 | 2.55236 | 360 ft | 9 kts | 165° |
| 2026-05-09 08:11 | 49.00929 | 2.55261 | 359 ft | 10 kts | 165° |
| 2026-05-09 08:11 | 49.00857 | 2.55291 | 364 ft | 11 kts | 164° |
| 2026-05-09 08:12 | 49.00728 | 2.55393 | 359 ft | 10 kts | 104° |
| 2026-05-09 08:12 | 49.00731 | 2.55504 | 357 ft | 11 kts | 83° |
| 2026-05-09 08:12 | 49.00740 | 2.55622 | 363 ft | 12 kts | 83° |
| 2026-05-09 08:13 | 49.00751 | 2.55750 | 361 ft | 13 kts | 83° |
| 2026-05-09 08:13 | 49.00762 | 2.55886 | 357 ft | 13 kts | 81° |
| 2026-05-09 08:13 | 49.00776 | 2.56026 | 362 ft | 14 kts | 82° |
| 2026-05-09 08:13 | 49.00791 | 2.56176 | 361 ft | 15 kts | 82° |
| 2026-05-09 08:14 | 49.00806 | 2.56334 | 357 ft | 16 kts | 81° |
| 2026-05-09 08:14 | 49.02518 | 2.53499 | 359 ft | 0 kts | 85° |
| 2026-05-09 08:14 | 49.02518 | 2.53507 | 359 ft | 2 kts | 85° |
| 2026-05-09 08:14 | 49.02520 | 2.53541 | 362 ft | 5 kts | 85° |
| 2026-05-09 08:15 | 49.02521 | 2.53555 | 365 ft | 0 kts | 85° |